Latest Coastal Weather Observations for Flinders Island Airport

IDV60701

Issued at 3:42 am EST Tuesday 28 June 2022 (issued every 10 minutes, with the page automatically refreshed every 10 minutes)

About coastal observations | Map of coastal stations | Coastal observations for VIC | Marine services | Other Formats
Station Details ID: 099005 Name: FLINDERS ISLAND AIRPORT Lat: -40.09 Lon: 148.00 Height: 9.0 m
Data from the previous 72 hours. | See also: Recent months at Flinders Island Airport
Date/Time
EST
Wind Sea
Height
m
Swell Vis
km
Cloud Weather Temp
°C
Press
MSL
hPa
Rain since
9am
mm
Dir  Spd
kts
Gust
kts
Height
m
Period
s
Dir
28/03:30am W 10 15 - - - - 10 Cloudy - 9.8 1029.5 0.0
28/03:00am NNW 4 5 - - - - 10 Mostly cloudy - 5.1 1029.9 0.0
28/02:30am NE 5 6 - - - - 10 Partly cloudy - 3.6 1030.0 0.0
28/02:00am ENE 5 6 - - - - 10 Partly cloudy - 2.6 1030.1 0.0
28/01:30am ENE 5 5 - - - - 10 - - 2.8 1030.0 0.0
28/01:00am ENE 6 8 - - - - 10 Partly cloudy - 3.7 1030.0 0.0
28/12:30am ENE 7 8 - - - - 10 Partly cloudy - 2.6 1030.2 0.0
28/12:00am NE 6 7 - - - - 10 - - 1.9 1030.9 0.0
 
Date/Time
EST
Wind Sea
Height
m
Swell Vis
km
Cloud Weather Temp
°C
Press
MSL
hPa
Rain since
9am
mm
Dir  Spd
kts
Gust
kts
Height
m
Period
s
Dir
27/11:30pm ENE 6 6 - - - - 10 - - 2.2 1031.0 0.0
27/11:00pm ENE 6 7 - - - - 10 Partly cloudy - 2.3 1031.1 0.0
27/10:30pm ENE 7 8 - - - - 10 Partly cloudy - 1.7 1031.2 0.0
27/10:00pm ENE 7 8 - - - - 10 - - 1.2 1031.2 0.0
27/09:30pm NE 7 9 - - - - 10 - - 1.4 1031.3 0.0
27/09:00pm NE 7 8 - - - - 10 - - 1.3 1031.5 0.0
27/08:30pm ENE 8 9 - - - - 10 - - 1.4 1031.6 0.0
27/08:00pm NE 8 9 - - - - 10 Partly cloudy - 1.4 1031.5 0.0
27/07:30pm ENE 8 9 - - - - 10 Partly cloudy - 1.8 1031.3 0.0
27/07:00pm ENE 7 8 - - - - 10 - - 2.0 1031.2 0.0
27/06:30pm ENE 8 9 - - - - 10 - - 2.5 1031.1 0.0
27/06:00pm NE 5 8 - - - - 10 - - 2.7 1031.2 0.0
27/05:30pm NE 2 5 - - - - 10 - - 3.9 1031.0 0.0
27/05:00pm SSW 6 7 - - - - 10 - - 5.3 1030.5 0.0
27/04:30pm SSW 8 11 - - - - 10 - - 9.4 1030.2 0.0
27/04:00pm SSW 9 12 - - - - 10 - - 10.3 1030.1 0.0
27/03:30pm SSW 10 13 - - - - 10 - - 10.9 1030.0 0.0
27/03:00pm SSW 9 12 - - - - 10 - - 11.5 1029.7 0.0
27/02:30pm SSW 11 15 - - - - 10 - - 11.6 1029.6 0.0
27/02:00pm SSW 11 15 - - - - 10 - - 11.7 1029.4 0.0
27/01:30pm SSW 12 16 - - - - 10 - - 11.7 1029.5 0.0
27/01:00pm SSW 12 15 - - - - 10 - - 11.7 1029.2 0.0
27/12:30pm SSW 11 15 - - - - 10 - - 11.6 1029.4 0.0
27/12:00pm SSW 11 14 - - - - 10 - - 11.8 1029.4 0.0
27/11:30am SSW 9 12 - - - - 10 - - 11.6 1029.2 0.0
27/11:00am SSW 9 11 - - - - 10 - - 11.6 1029.6 0.0
27/10:30am SSW 10 13 - - - - 10 - - 11.3 1029.6 0.0
27/10:00am SSW 9 14 - - - - 10 - - 11.0 1029.4 0.0
27/09:30am SSW 9 11 - - - - 10 - - 10.8 1028.9 0.0
27/09:00am S 9 11 - - - - 10 - - 10.3 1028.7 0.0
27/08:30am SSW 11 15 - - - - 10 Partly cloudy - 10.2 1028.3 0.0
27/08:00am SSW 12 17 - - - - 10 Partly cloudy - 9.8 1028.1 0.0
27/07:30am SSW 14 17 - - - - 10 Partly cloudy - 9.7 1028.0 0.0
27/07:00am SW 14 18 - - - - 10 Partly cloudy - 9.8 1027.5 0.0
27/06:30am SW 14 18 - - - - 10 Partly cloudy - 9.8 1027.0 0.0
27/06:00am SW 16 20 - - - - 10 Mostly clear - 9.8 1026.7 0.0
27/05:30am SW 17 21 - - - - 10 Partly cloudy - 9.9 1026.2 0.0
27/05:00am SW 15 19 - - - - 10 Partly cloudy - 9.7 1025.8 0.0
27/04:30am SW 15 20 - - - - 10 Partly cloudy - 9.8 1025.5 0.0
27/04:00am SW 15 18 - - - - 10 Partly cloudy - 9.8 1025.3 0.0
27/03:30am SW 15 19 - - - - 10 Partly cloudy - 9.9 1025.1 0.0
27/03:00am SW 17 20 - - - - 10 Partly cloudy - 9.7 1025.1 0.0
27/02:30am SW 18 21 - - - - 10 Partly cloudy - 10.1 1024.9 0.0
27/02:00am SW 17 20 - - - - 10 Partly cloudy - 10.0 1024.8 0.0
27/01:30am WSW 17 20 - - - - 10 Partly cloudy - 9.8 1024.5 0.0
27/01:00am WSW 18 22 - - - - 10 Partly cloudy - 10.0 1024.3 0.0
27/12:30am WSW 18 22 - - - - 10 Partly cloudy - 10.3 1024.1 0.0
27/12:00am WSW 18 23 - - - - 10 Mostly clear - 10.2 1023.9 0.0
 
Date/Time
EST
Wind Sea
Height
m
Swell Vis
km
Cloud Weather Temp
°C
Press
MSL
hPa
Rain since
9am
mm
Dir  Spd
kts
Gust
kts
Height
m
Period
s
Dir
26/11:30pm WSW 18 22 - - - - 10 Partly cloudy - 10.4 1024.0 0.0
26/11:00pm WSW 17 21 - - - - 10 Partly cloudy - 10.4 1024.0 0.0
26/10:30pm WSW 18 22 - - - - 10 Partly cloudy - 10.5 1023.8 0.0
26/10:00pm WSW 19 23 - - - - 10 Partly cloudy - 10.4 1023.6 0.0
26/09:30pm WSW 19 24 - - - - 10 Partly cloudy - 10.7 1023.5 0.0
26/09:00pm WSW 18 23 - - - - 10 Partly cloudy - 10.7 1023.3 0.0
26/08:30pm WSW 18 25 - - - - 10 Partly cloudy - 11.1 1022.9 0.0
26/08:00pm WSW 20 23 - - - - 10 - - 10.9 1022.7 0.0
26/07:30pm WSW 21 27 - - - - 10 Partly cloudy - 11.1 1022.3 0.0
26/07:00pm WSW 19 26 - - - - 10 Partly cloudy - 11.0 1022.1 0.0
26/06:30pm WSW 21 27 - - - - 10 Partly cloudy - 11.4 1021.8 0.0
26/06:00pm WSW 21 27 - - - - 10 Cloudy - 11.1 1021.4 0.0
26/05:30pm WSW 21 26 - - - - 10 Partly cloudy - 11.1 1021.1 0.0
26/05:00pm WSW 21 24 - - - - 10 - - 11.1 1020.6 0.0
26/04:30pm WSW 21 26 - - - - 10 Partly cloudy - 11.1 1020.5 0.0
26/04:00pm WSW 19 26 - - - - 10 Partly cloudy - 11.2 1020.5 0.0
26/03:30pm WSW 19 23 - - - - 10 Partly cloudy - 11.5 1020.3 0.0
26/03:00pm WSW 20 25 - - - - 10 Cloudy - 11.6 1019.9 0.0
26/02:30pm WSW 21 26 - - - - 10 Partly cloudy - 11.6 1019.8 0.0
26/02:00pm WSW 21 26 - - - - 10 Partly cloudy - 12.3 1019.5 0.0
26/01:30pm WSW 21 26 - - - - 10 Partly cloudy - 11.8 1019.5 0.0
26/01:00pm WSW 22 28 - - - - 10 Partly cloudy - 12.4 1019.4 0.0
26/12:30pm W 22 27 - - - - 10 Partly cloudy - 12.0 1019.3 0.0
26/12:00pm WSW 22 27 - - - - 10 Mostly clear - 12.4 1019.2 0.0
26/11:30am WSW 21 26 - - - - 10 Partly cloudy - 11.9 1019.3 0.0
26/11:00am WSW 22 26 - - - - 10 Partly cloudy - 12.0 1019.6 0.0
26/10:30am WSW 22 28 - - - - 10 Partly cloudy - 12.2 1019.4 0.0
26/10:00am WSW 24 30 - - - - 10 Partly cloudy - 12.2 1018.9 0.0
26/09:30am WSW 23 30 - - - - 10 Partly cloudy - 11.8 1018.5 0.0
26/09:00am WSW 25 30 - - - - 10 Mostly clear - 11.9 1018.0 3.6
26/08:30am WSW 25 31 - - - - 10 Partly cloudy - 11.7 1017.8 3.6
26/08:00am WSW 25 29 - - - - 10 Partly cloudy - 11.8 1017.5 3.6
26/07:30am W 25 31 - - - - 10 Partly cloudy - 12.1 1017.0 3.6
26/07:00am W 23 28 - - - - 10 Partly cloudy - 12.0 1016.7 3.6
26/06:30am W 20 26 - - - - 10 Partly cloudy - 11.5 1016.8 3.6
26/06:06am W 21 31 - - - - 10 Partly cloudy - 11.4 1016.4 3.6
26/06:00am W 25 31 - - - - 10 Cloudy Rain 11.6 1016.2 3.6
26/05:38am W 21 33 - - - - 10 Partly cloudy - 11.6 1016.0 3.6
26/05:30am W 22 29 - - - - 10 Partly cloudy - 11.6 1015.9 3.6
26/05:20am W 22 29 - - - - 10 Partly cloudy - 11.1 1015.9 3.6
26/05:00am WNW 20 27 - - - - 9 Partly cloudy - 11.3 1015.4 3.4
26/04:30am W 22 33 - - - - 10 Partly cloudy - 12.0 1015.1 3.0
26/04:13am WNW 17 27 - - - - 10 Partly cloudy - 12.5 1015.1 3.0
26/04:00am WNW 18 27 - - - - 10 Partly cloudy - 12.1 1015.3 3.0
26/03:30am WNW 19 28 - - - - 10 Partly cloudy - 11.6 1014.8 3.0
26/03:05am NW 19 29 - - - - 10 Partly cloudy - 11.7 1015.1 3.0
26/03:00am NW 21 30 - - - - 10 Mostly cloudy Showers 11.6 1015.1 2.8
26/02:38am WNW 21 30 - - - - 10 Partly cloudy - 12.1 1015.1 2.4
26/02:30am WNW 22 30 - - - - 8 Partly cloudy - 12.1 1015.1 2.4
26/02:16am WNW 24 37 - - - - 5 Partly cloudy - 12.4 1015.3 1.0
26/02:11am WNW 23 34 - - - - 10 Partly cloudy - 13.1 1014.8 0.2
26/02:00am NW 27 35 - - - - 10 Partly cloudy - 13.1 1014.9 0.2
26/01:30am NW 27 40 - - - - 10 Partly cloudy - 13.7 1014.7 0.2
26/01:00am NW 26 36 - - - - 10 Partly cloudy - 13.5 1014.8 0.2
26/12:45am NW 27 39 - - - - 10 Partly cloudy - 13.7 1014.8 0.2
26/12:30am NW 26 34 - - - - 10 Partly cloudy - 13.8 1014.9 0.2
26/12:00am NW 26 36 - - - - 10 Cloudy - 13.7 1015.1 0.2
 
Date/Time
EST
Wind Sea
Height
m
Swell Vis
km
Cloud Weather Temp
°C
Press
MSL
hPa
Rain since
9am
mm
Dir  Spd
kts
Gust
kts
Height
m
Period
s
Dir
25/11:30pm NW 24 34 - - - - 10 Partly cloudy - 13.7 1015.2 0.2
25/11:22pm NW 23 33 - - - - 10 Partly cloudy - 13.5 1015.2 0.2
25/11:00pm NW 23 31 - - - - 10 Partly cloudy - 13.5 1015.3 0.2
25/10:30pm NW 21 27 - - - - 10 Partly cloudy - 13.5 1015.3 0.2
25/10:00pm NW 21 29 - - - - 10 Partly cloudy - 13.5 1015.3 0.2
25/09:42pm NW 20 30 - - - - 10 Partly cloudy - 13.6 1015.5 0.2
25/09:30pm NW 20 27 - - - - 10 Partly cloudy - 13.7 1015.5 0.2
25/09:00pm NW 22 31 - - - - 10 Cloudy - 13.8 1015.3 0.2
25/08:35pm NW 26 36 - - - - 10 Partly cloudy - 14.1 1015.4 0.2
25/08:30pm NW 25 33 - - - - 10 Partly cloudy - 14.1 1015.3 0.2
25/08:06pm WNW 21 31 - - - - 10 Partly cloudy - 14.0 1015.3 0.2
25/08:00pm WNW 21 30 - - - - 10 Partly cloudy - 14.0 1015.3 0.2
25/07:46pm NW 24 34 - - - - 10 Partly cloudy - 13.9 1015.3 0.2
25/07:30pm NW 23 32 - - - - 10 Partly cloudy - 13.7 1015.2 0.2
25/07:24pm NW 23 33 - - - - 10 Partly cloudy - 13.6 1015.1 0.2
25/07:00pm NW 23 29 - - - - 10 Partly cloudy - 13.7 1015.1 0.2
25/06:30pm NW 22 28 - - - - 10 Partly cloudy - 13.5 1015.1 0.2
25/06:00pm NW 20 29 - - - - 10 Cloudy - 13.2 1014.9 0.2
25/05:30pm WNW 22 29 - - - - 10 Partly cloudy - 12.8 1014.9 0.2
25/05:00pm NW 19 27 - - - - 10 Partly cloudy - 12.7 1014.7 0.2
25/04:55pm NW 20 27 - - - - 10 Partly cloudy - 12.3 1014.6 0.2
25/04:42pm WNW 23 32 - - - - 5 Partly cloudy - 12.2 1014.7 0.2
25/04:30pm WNW 21 28 - - - - 10 Partly cloudy - 13.2 1014.5 0.2
25/04:00pm WNW 23 33 - - - - 10 Partly cloudy - 12.8 1014.4 0.2
25/03:30pm WNW 22 32 - - - - 10 Partly cloudy - 13.1 1014.4 0.2
25/03:20pm NW 20 30 - - - - 10 Partly cloudy - 13.1 1014.3 0.2
25/03:00pm WNW 23 32 - - - - 10 Cloudy Rain 12.9 1014.4 0.2
25/02:47pm NW 23 32 - - - - 10 Partly cloudy - 12.6 1014.3 0.2
25/02:41pm NW 21 31 - - - - 10 Partly cloudy - 12.7 1014.3 0.2
25/02:33pm WNW 22 30 - - - - 8 Partly cloudy - 12.6 1014.1 0.2
25/02:30pm WNW 22 30 - - - - 9 Partly cloudy - 12.5 1014.1 0.2
25/02:25pm WNW 20 30 - - - - 8 Partly cloudy - 12.4 1014.2 0.2
25/02:00pm NW 23 32 - - - - 10 Partly cloudy - 12.6 1014.3 0.2
25/01:51pm NW 22 29 - - - - 10 Partly cloudy - 13.0 1014.3 0.2
25/01:30pm WNW 22 31 - - - - 10 Partly cloudy - 13.0 1014.3 0.2
25/01:27pm WNW 22 31 - - - - 10 Partly cloudy - 13.2 1014.3 0.2
25/01:00pm WNW 22 30 - - - - 10 Partly cloudy - 13.4 1014.2 0.2
25/12:30pm WNW 23 33 - - - - 10 Partly cloudy - 13.7 1014.1 0.2
25/12:21pm WNW 22 33 - - - - 10 Partly cloudy - 13.7 1014.1 0.2
25/12:00pm WNW 21 28 - - - - 10 Cloudy - 13.4 1014.2 0.2
25/11:37am WNW 21 33 - - - - 10 Partly cloudy - 13.2 1014.3 0.2
25/11:30am WNW 20 28 - - - - 10 Partly cloudy - 13.2 1014.2 0.2
25/11:17am WNW 20 30 - - - - 10 Partly cloudy - 13.3 1014.3 0.2
25/11:00am WNW 20 29 - - - - 10 Partly cloudy - 12.2 1014.6 0.2
25/10:59am WNW 20 29 - - - - 10 Partly cloudy - 12.2 1014.6 0.2
25/10:54am WNW 21 29 - - - - 10 Partly cloudy - 12.0 1014.7 0.2
25/10:39am WNW 21 31 - - - - 4 Partly cloudy - 11.9 1014.7 0.2
25/10:37am WNW 22 31 - - - - 5 Partly cloudy - 12.0 1014.7 0.2
25/10:30am WNW 21 31 - - - - 10 Partly cloudy - 12.7 1014.6 0.0
25/10:24am NW 19 31 - - - - 10 Partly cloudy - 12.5 1014.5 0.0
25/10:04am WNW 18 25 - - - - 10 Partly cloudy - 12.4 1014.4 0.0
25/10:00am WNW 18 26 - - - - 10 Partly cloudy - 12.3 1014.4 0.0
25/09:39am WNW 20 30 - - - - 10 Partly cloudy - 11.5 1014.3 0.0
25/09:30am WNW 19 28 - - - - 10 Partly cloudy - 12.5 1014.2 0.0
25/09:00am WNW 21 27 - - - - 10 Cloudy Showers 11.7 1014.0 2.6
25/08:43am WNW 20 34 - - - - 10 Partly cloudy - 12.1 1014.0 2.4
25/08:35am WNW 21 27 - - - - 10 Partly cloudy - 12.1 1013.8 2.4
25/08:30am WNW 20 28 - - - - 7 Partly cloudy - 11.8 1013.8 2.4
25/08:16am WNW 22 33 - - - - 5 Partly cloudy - 11.8 1013.8 2.2
25/08:00am WNW 23 34 - - - - 10 Partly cloudy - 13.0 1013.7 1.6
25/07:54am WNW 23 34 - - - - 10 Partly cloudy - 12.9 1013.6 1.6
25/07:30am NW 20 28 - - - - 10 Partly cloudy - 12.5 1013.5 1.6
25/07:23am NW 20 30 - - - - 10 Partly cloudy - 12.5 1013.6 1.6
25/07:00am WNW 21 29 - - - - 10 Partly cloudy - 12.8 1013.4 1.6
25/06:30am WNW 21 30 - - - - 10 Partly cloudy - 12.8 1013.2 1.6
25/06:07am WNW 19 29 - - - - 10 Partly cloudy - 12.6 1013.1 1.6
25/06:00am WNW 19 27 - - - - 10 Cloudy - 12.6 1013.2 1.6
25/05:30am WNW 17 24 - - - - 10 Partly cloudy - 12.2 1013.0 1.6
25/05:00am WNW 15 20 - - - - 10 - - 11.9 1012.7 1.6
25/04:30am WNW 17 22 - - - - 10 Partly cloudy - 12.1 1012.6 1.6
25/04:00am WNW 16 21 - - - - 10 Partly cloudy - 11.2 1012.9 1.6

Other formats

Comma delimited format used in spreadsheet applications
http://www.bom.gov.au/fwo/IDV60701/IDV60701.94980.axf

JavaScript Object Notation format (JSON) in row-major order
http://www.bom.gov.au/fwo/IDV60701/IDV60701.94980.json

Data quality

Most of these data are generated automatically and are frequently updated. Quality checks on data are not normally performed. It is possible for incorrect values to appear. Refer to information at About Latest Weather Observations and please check the disclaimer before using these data.